Terminal Aerodrome Forecast
Issued by NWS Sioux Falls, SD

Home | Current Version | Previous Version | Text Only | Print | Product List | Glossary On
Versions: 1 2 3 4 5 6 7 8 9 10 11 12 13 14 15 16 17 18 19
000
FTUS43 KFSD 241123
TAFFSD
TAF
KFSD 241123Z 2412/2512 30008KT P6SM FEW150
     FM241600 28011G16KT P6SM SCT150
     FM242300 30012KT P6SM -RA BKN035
     FM250300 30014G23KT P6SM OVC020
      TEMPO 2507/2510 4SM -RASN=

USA.gov is the U.S. government's official web portal to all federal, state and local government web resources and services.